Time,TemperatureF,DewpointF,PressureIn,WindDirection,WindDirectionDegrees,WindSpeedMPH,WindSpeedGustMPH,Humidity,HourlyPrecipIn,Conditions,Clouds,dailyrainin,SoftwareType,DateUTC
2013-03-28 00:05:00,36.3,21.0,30.01,East,80,2.0,2.0,55,0.00,,,0.00,weatherlink.com 1.10,2013-03-28 06:05:00,
2013-03-28 00:20:00,34.6,22.0,30.01,East,83,0.0,1.0,61,0.00,,,0.00,weatherlink.com 1.10,2013-03-28 06:20:00,
2013-03-28 00:36:00,33.1,22.0,30.02,East,83,0.0,1.0,63,0.00,,,0.00,weatherlink.com 1.10,2013-03-28 06:36:00,
2013-03-28 00:51:00,33.0,22.0,30.02,WNW,303,0.0,1.0,64,0.00,,,0.00,weatherlink.com 1.10,2013-03-28 06:51:00,
2013-03-28 01:06:00,33.8,22.0,30.02,East,87,3.0,3.0,62,0.00,,,0.00,weatherlink.com 1.10,2013-03-28 07:06:00,
2013-03-28 01:21:00,32.4,21.0,30.03,North,10,0.0,1.0,64,0.00,,,0.00,weatherlink.com 1.10,2013-03-28 07:21:00,
2013-03-28 01:36:00,31.9,21.0,30.03,WSW,257,1.0,2.0,65,0.00,,,0.00,weatherlink.com 1.10,2013-03-28 07:36:00,
2013-03-28 02:06:00,29.6,21.0,30.03,South,189,0.0,2.0,70,0.00,,,0.00,weatherlink.com 1.10,2013-03-28 08:06:00,
2013-03-28 02:36:00,28.7,21.0,30.04,SW,217,0.0,1.0,73,0.00,,,0.00,weatherlink.com 1.10,2013-03-28 08:36:00,
2013-03-28 03:36:00,26.7,20.0,30.04,SW,227,1.0,1.0,76,0.00,,,0.00,weatherlink.com 1.10,2013-03-28 09:36:00,
2013-03-28 03:51:00,26.2,20.0,30.05,West,274,1.0,1.0,77,0.00,,,0.00,weatherlink.com 1.10,2013-03-28 09:51:00,
2013-03-28 04:06:00,26.5,21.0,30.05,WSW,250,1.0,2.0,78,0.00,,,0.00,weatherlink.com 1.10,2013-03-28 10:06:00,
2013-03-28 04:21:00,26.1,20.0,30.06,West,261,1.0,2.0,79,0.00,,,0.00,weatherlink.com 1.10,2013-03-28 10:21:00,
2013-03-28 04:36:00,25.4,20.0,30.05,West,266,1.0,2.0,79,0.00,,,0.00,weatherlink.com 1.10,2013-03-28 10:36:00,
2013-03-28 04:51:00,25.5,20.0,30.06,West,269,0.0,2.0,80,0.00,,,0.00,weatherlink.com 1.10,2013-03-28 10:51:00,
2013-03-28 05:06:00,25.5,20.0,30.06,West,265,2.0,4.0,81,0.00,,,0.00,weatherlink.com 1.10,2013-03-28 11:06:00,
2013-03-28 05:21:00,25.9,21.0,30.06,West,264,1.0,3.0,80,0.00,,,0.00,weatherlink.com 1.10,2013-03-28 11:21:00,
2013-03-28 05:36:00,25.3,20.0,30.07,West,274,0.0,3.0,80,0.00,,,0.00,weatherlink.com 1.10,2013-03-28 11:36:00,
2013-03-28 05:51:00,25.5,21.0,30.07,WSW,244,0.0,2.0,83,0.00,,,0.00,weatherlink.com 1.10,2013-03-28 11:51:00,
2013-03-28 06:06:00,25.9,21.0,30.08,WSW,252,2.0,2.0,83,0.00,,,0.00,weatherlink.com 1.10,2013-03-28 12:06:00,
2013-03-28 06:21:00,25.3,21.0,30.08,SW,231,1.0,3.0,83,0.00,,,0.00,weatherlink.com 1.10,2013-03-28 12:21:00,
2013-03-28 06:36:00,25.4,21.0,30.08,West,264,0.0,2.0,83,0.00,,,0.00,weatherlink.com 1.10,2013-03-28 12:36:00,
2013-03-28 06:51:00,25.0,21.0,30.08,West,276,1.0,1.0,83,0.00,,,0.00,weatherlink.com 1.10,2013-03-28 12:51:00,
2013-03-28 07:06:00,24.7,20.0,30.09,West,264,0.0,1.0,83,0.00,,,0.00,weatherlink.com 1.10,2013-03-28 13:06:00,
2013-03-28 07:22:00,24.0,20.0,30.09,WNW,285,0.0,1.0,85,0.00,,,0.00,weatherlink.com 1.10,2013-03-28 13:22:00,
2013-03-28 07:37:00,23.8,20.0,30.10,ESE,114,1.0,2.0,85,0.00,,,0.00,weatherlink.com 1.10,2013-03-28 13:37:00,
2013-03-28 07:52:00,26.1,22.0,30.10,ESE,121,0.0,1.0,84,0.00,,,0.00,weatherlink.com 1.10,2013-03-28 13:52:00,
2013-03-28 08:07:00,28.4,23.0,30.10,WSW,240,0.0,0.0,79,0.00,,,0.00,weatherlink.com 1.10,2013-03-28 14:07:00,
2013-03-28 08:22:00,29.1,23.0,30.11,West,260,1.0,2.0,78,0.00,,,0.00,weatherlink.com 1.10,2013-03-28 14:22:00,
2013-03-28 08:37:00,31.0,24.0,30.10,West,260,2.0,2.0,76,0.00,,,0.00,weatherlink.com 1.10,2013-03-28 14:37:00,
2013-03-28 08:52:00,33.2,24.0,30.10,WSW,254,1.0,2.0,70,0.00,,,0.00,weatherlink.com 1.10,2013-03-28 14:52:00,
2013-03-28 09:07:00,35.6,25.0,30.11,West,262,3.0,4.0,65,0.00,,,0.00,weatherlink.com 1.10,2013-03-28 15:07:00,
2013-03-28 09:22:00,37.6,25.0,30.10,West,274,3.0,4.0,60,0.00,,,0.00,weatherlink.com 1.10,2013-03-28 15:22:00,
2013-03-28 09:37:00,39.6,25.0,30.10,SW,234,1.0,5.0,56,0.00,,,0.00,weatherlink.com 1.10,2013-03-28 15:37:00,
2013-03-28 09:52:00,41.5,25.0,30.10,West,259,4.0,6.0,52,0.00,,,0.00,weatherlink.com 1.10,2013-03-28 15:52:00,
2013-03-28 10:07:00,43.1,24.0,30.10,West,273,1.0,8.0,47,0.00,,,0.00,weatherlink.com 1.10,2013-03-28 16:07:00,
2013-03-28 10:22:00,44.3,25.0,30.10,West,281,1.0,6.0,47,0.00,,,0.00,weatherlink.com 1.10,2013-03-28 16:22:00,
2013-03-28 10:37:00,45.1,24.0,30.09,NW,318,3.0,6.0,43,0.00,,,0.00,weatherlink.com 1.10,2013-03-28 16:37:00,
2013-03-28 10:53:00,47.2,24.0,30.09,NW,309,3.0,5.0,41,0.00,,,0.00,weatherlink.com 1.10,2013-03-28 16:53:00,
2013-03-28 11:08:00,48.8,25.0,30.09,WNW,296,3.0,5.0,39,0.00,,,0.00,weatherlink.com 1.10,2013-03-28 17:08:00,
2013-03-28 11:23:00,50.7,25.0,30.09,SW,217,0.0,6.0,37,0.00,,,0.00,weatherlink.com 1.10,2013-03-28 17:23:00,
2013-03-28 11:38:00,51.3,25.0,30.08,WNW,294,2.0,7.0,36,0.00,,,0.00,weatherlink.com 1.10,2013-03-28 17:38:00,
2013-03-28 11:53:00,53.2,25.0,30.08,SSE,153,2.0,6.0,34,0.00,,,0.00,weatherlink.com 1.10,2013-03-28 17:53:00,
2013-03-28 12:08:00,54.5,24.0,30.07,NW,309,0.0,6.0,31,0.00,,,0.00,weatherlink.com 1.10,2013-03-28 18:08:00,
2013-03-28 12:23:00,55.1,26.0,30.06,NNE,14,0.0,8.0,32,0.00,,,0.00,weatherlink.com 1.10,2013-03-28 18:23:00,
2013-03-28 12:38:00,56.1,26.0,30.05,NNW,343,2.0,5.0,31,0.00,,,0.00,weatherlink.com 1.10,2013-03-28 18:38:00,
2013-03-28 12:53:00,58.0,25.0,30.05,East,89,1.0,5.0,28,0.00,,,0.00,weatherlink.com 1.10,2013-03-28 18:53:00,
2013-03-28 13:08:00,58.8,24.0,30.04,West,278,0.0,4.0,26,0.00,,,0.00,weatherlink.com 1.10,2013-03-28 19:08:00,
2013-03-28 13:23:00,59.2,25.0,30.04,NNW,337,5.0,8.0,27,0.00,,,0.00,weatherlink.com 1.10,2013-03-28 19:23:00,
2013-03-28 13:38:00,59.8,25.0,30.03,SE,124,4.0,8.0,26,0.00,,,0.00,weatherlink.com 1.10,2013-03-28 19:38:00,
2013-03-28 13:54:00,60.6,24.0,30.03,ESE,105,3.0,8.0,25,0.00,,,0.00,weatherlink.com 1.10,2013-03-28 19:54:00,
2013-03-28 14:08:00,60.9,24.0,30.02,NE,51,4.0,8.0,24,0.00,,,0.00,weatherlink.com 1.10,2013-03-28 20:08:00,
2013-03-28 14:23:00,62.0,24.0,30.01,ENE,77,8.0,9.0,23,0.00,,,0.00,weatherlink.com 1.10,2013-03-28 20:23:00,
2013-03-28 14:38:00,61.6,24.0,30.01,NNE,13,0.0,9.0,24,0.00,,,0.00,weatherlink.com 1.10,2013-03-28 20:38:00,
2013-03-28 14:53:00,62.4,25.0,30.00,NNW,335,5.0,7.0,24,0.00,,,0.00,weatherlink.com 1.10,2013-03-28 20:53:00,
2013-03-28 15:08:00,63.0,25.0,30.00,NNW,330,5.0,9.0,24,0.00,,,0.00,weatherlink.com 1.10,2013-03-28 21:08:00,
2013-03-28 15:23:00,63.3,25.0,29.99,NW,314,6.0,9.0,23,0.00,,,0.00,weatherlink.com 1.10,2013-03-28 21:23:00,
2013-03-28 15:38:00,63.6,25.0,29.99,SSW,193,2.0,8.0,23,0.00,,,0.00,weatherlink.com 1.10,2013-03-28 21:38:00,
2013-03-28 15:53:00,64.2,23.0,29.98,SSE,148,0.0,6.0,21,0.00,,,0.00,weatherlink.com 1.10,2013-03-28 21:53:00,
2013-03-28 16:08:00,64.3,23.0,29.98,SE,129,2.0,7.0,21,0.00,,,0.00,weatherlink.com 1.10,2013-03-28 22:08:00,
2013-03-28 16:23:00,64.7,24.0,29.98,NW,323,3.0,10.0,21,0.00,,,0.00,weatherlink.com 1.10,2013-03-28 22:23:00,
2013-03-28 16:38:00,65.8,24.0,29.97,NNW,344,0.0,4.0,20,0.00,,,0.00,weatherlink.com 1.10,2013-03-28 22:38:00,
2013-03-28 16:53:00,66.1,24.0,29.97,West,274,2.0,11.0,20,0.00,,,0.00,weatherlink.com 1.10,2013-03-28 22:53:00,
2013-03-28 17:08:00,65.7,23.0,29.97,NW,304,4.0,8.0,20,0.00,,,0.00,weatherlink.com 1.10,2013-03-28 23:08:00,
2013-03-28 17:23:00,65.6,23.0,29.97,SE,130,0.0,5.0,20,0.00,,,0.00,weatherlink.com 1.10,2013-03-28 23:23:00,
2013-03-28 17:38:00,66.2,24.0,29.96,WNW,295,5.0,9.0,20,0.00,,,0.00,weatherlink.com 1.10,2013-03-28 23:38:00,
2013-03-28 17:54:00,65.5,23.0,29.96,NNW,330,4.0,5.0,20,0.00,,,0.00,weatherlink.com 1.10,2013-03-28 23:54:00,
2013-03-28 18:09:00,64.6,24.0,29.96,South,186,3.0,8.0,21,0.00,,,0.00,weatherlink.com 1.10,2013-03-29 00:09:00,
2013-03-28 18:24:00,63.3,25.0,29.96,SSE,153,3.0,5.0,23,0.00,,,0.00,weatherlink.com 1.10,2013-03-29 00:24:00,
2013-03-28 18:39:00,61.7,24.0,29.96,ESE,114,8.0,8.0,24,0.00,,,0.00,weatherlink.com 1.10,2013-03-29 00:39:00,
2013-03-28 18:54:00,60.7,25.0,29.96,East,97,1.0,5.0,26,0.00,,,0.00,weatherlink.com 1.10,2013-03-29 00:54:00,
2013-03-28 19:09:00,60.3,25.0,29.96,East,85,2.0,4.0,26,0.00,,,0.00,weatherlink.com 1.10,2013-03-29 01:09:00,
2013-03-28 19:24:00,57.9,26.0,29.97,ESE,112,2.0,2.0,29,0.00,,,0.00,weatherlink.com 1.10,2013-03-29 01:24:00,
2013-03-28 19:39:00,56.6,26.0,29.97,ENE,58,3.0,4.0,31,0.00,,,0.00,weatherlink.com 1.10,2013-03-29 01:39:00,
2013-03-28 19:54:00,54.9,25.0,29.97,ESE,115,1.0,3.0,32,0.00,,,0.00,weatherlink.com 1.10,2013-03-29 01:54:00,
2013-03-28 20:09:00,54.2,25.0,29.98,East,101,2.0,2.0,33,0.00,,,0.00,weatherlink.com 1.10,2013-03-29 02:09:00,
2013-03-28 20:24:00,53.2,25.0,29.98,East,88,5.0,5.0,34,0.00,,,0.00,weatherlink.com 1.10,2013-03-29 02:24:00,
2013-03-28 20:39:00,51.1,26.0,29.98,East,101,1.0,4.0,38,0.00,,,0.00,weatherlink.com 1.10,2013-03-29 02:39:00,
2013-03-28 20:54:00,48.3,25.0,29.99,SSE,157,1.0,2.0,40,0.00,,,0.00,weatherlink.com 1.10,2013-03-29 02:54:00,
2013-03-28 21:09:00,46.3,25.0,29.99,SSE,157,0.0,0.0,44,0.00,,,0.00,weatherlink.com 1.10,2013-03-29 03:09:00,
2013-03-28 21:24:00,47.0,26.0,30.00,SSE,157,0.0,1.0,45,0.00,,,0.00,weatherlink.com 1.10,2013-03-29 03:24:00,
2013-03-28 21:39:00,47.4,27.0,29.99,ESE,105,0.0,2.0,45,0.00,,,0.00,weatherlink.com 1.10,2013-03-29 03:39:00,
2013-03-28 21:54:00,47.1,28.0,29.99,ENE,63,1.0,3.0,47,0.00,,,0.00,weatherlink.com 1.10,2013-03-29 03:54:00,
2013-03-28 22:09:00,46.6,28.0,29.99,ESE,104,2.0,2.0,48,0.00,,,0.00,weatherlink.com 1.10,2013-03-29 04:09:00,
2013-03-28 22:24:00,46.0,27.0,29.99,SSE,153,1.0,3.0,47,0.00,,,0.00,weatherlink.com 1.10,2013-03-29 04:24:00,
2013-03-28 22:39:00,44.4,27.0,29.99,SW,228,0.0,2.0,51,0.00,,,0.00,weatherlink.com 1.10,2013-03-29 04:39:00,
2013-03-28 22:54:00,44.4,27.0,30.00,West,263,0.0,1.0,50,0.00,,,0.00,weatherlink.com 1.10,2013-03-29 04:54:00,
2013-03-28 23:09:00,42.7,27.0,30.00,WSW,238,0.0,1.0,54,0.00,,,0.00,weatherlink.com 1.10,2013-03-29 05:09:00,
2013-03-28 23:24:00,42.4,27.0,30.00,WSW,238,0.0,1.0,55,0.00,,,0.00,weatherlink.com 1.10,2013-03-29 05:24:00,
2013-03-28 23:39:00,41.9,27.0,30.00,SSW,205,0.0,2.0,56,0.00,,,0.00,weatherlink.com 1.10,2013-03-29 05:39:00,
2013-03-28 23:54:00,39.7,27.0,30.00,SSE,156,0.0,4.0,60,0.00,,,0.00,weatherlink.com 1.10,2013-03-29 05:54:00,